sensor_id;sensor_type;location;lat;lon;timestamp;temperature;humidity
7378;DHT22;3730;50.856;12.776;2022-07-23T01:04:27;20.90;91.40
7378;DHT22;3730;50.856;12.776;2022-07-23T01:06:53;20.80;91.80
7378;DHT22;3730;50.856;12.776;2022-07-23T01:09:18;21.00;92.30
7378;DHT22;3730;50.856;12.776;2022-07-23T01:11:44;21.00;93.00
7378;DHT22;3730;50.856;12.776;2022-07-23T01:14:15;20.90;93.40
7378;DHT22;3730;50.856;12.776;2022-07-23T01:16:42;20.90;93.70
7378;DHT22;3730;50.856;12.776;2022-07-23T01:19:09;20.70;94.40
7378;DHT22;3730;50.856;12.776;2022-07-23T01:21:40;20.90;94.90
7378;DHT22;3730;50.856;12.776;2022-07-23T04:17:11;19.80;99.90
7378;DHT22;3730;50.856;12.776;2022-07-23T04:19:37;19.60;99.90
7378;DHT22;3730;50.856;12.776;2022-07-23T04:22:08;19.60;99.90
7378;DHT22;3730;50.856;12.776;2022-07-23T04:24:34;19.60;99.90
7378;DHT22;3730;50.856;12.776;2022-07-23T04:27:01;19.60;99.90
7378;DHT22;3730;50.856;12.776;2022-07-23T04:29:27;19.60;99.90
7378;DHT22;3730;50.856;12.776;2022-07-23T04:31:53;19.60;99.90
7378;DHT22;3730;50.856;12.776;2022-07-23T04:34:19;19.70;99.90
7378;DHT22;3730;50.856;12.776;2022-07-23T04:36:44;19.60;99.90
7378;DHT22;3730;50.856;12.776;2022-07-23T04:39:10;19.60;99.90
7378;DHT22;3730;50.856;12.776;2022-07-23T04:41:36;19.60;99.90
7378;DHT22;3730;50.856;12.776;2022-07-23T04:46:28;19.50;99.90
7378;DHT22;3730;50.856;12.776;2022-07-23T04:53:46;18.90;99.90
7378;DHT22;3730;50.856;12.776;2022-07-23T04:56:11;18.70;99.90
7378;DHT22;3730;50.856;12.776;2022-07-23T04:58:37;18.50;99.90
7378;DHT22;3730;50.856;12.776;2022-07-23T05:01:03;18.50;99.90
7378;DHT22;3730;50.856;12.776;2022-07-23T05:03:29;18.60;99.90
7378;DHT22;3730;50.856;12.776;2022-07-23T05:05:55;18.50;99.90
7378;DHT22;3730;50.856;12.776;2022-07-23T05:08:21;18.50;99.90
7378;DHT22;3730;50.856;12.776;2022-07-23T05:10:46;18.70;99.90
7378;DHT22;3730;50.856;12.776;2022-07-23T05:13:14;18.60;99.90
7378;DHT22;3730;50.856;12.776;2022-07-23T05:15:40;18.60;99.90
7378;DHT22;3730;50.856;12.776;2022-07-23T05:18:06;18.70;99.90
7378;DHT22;3730;50.856;12.776;2022-07-23T05:20:31;18.70;99.90
7378;DHT22;3730;50.856;12.776;2022-07-23T05:22:57;18.70;99.90
7378;DHT22;3730;50.856;12.776;2022-07-23T05:25:23;18.70;99.90
7378;DHT22;3730;50.856;12.776;2022-07-23T05:27:48;18.70;99.90
7378;DHT22;3730;50.856;12.776;2022-07-23T05:30:14;18.80;99.90
7378;DHT22;3730;50.856;12.776;2022-07-23T05:32:40;18.80;99.90
7378;DHT22;3730;50.856;12.776;2022-07-23T05:35:06;18.80;99.90
7378;DHT22;3730;50.856;12.776;2022-07-23T05:37:32;18.80;99.90
7378;DHT22;3730;50.856;12.776;2022-07-23T05:40:05;18.80;99.90
7378;DHT22;3730;50.856;12.776;2022-07-23T05:42:33;18.80;99.90
7378;DHT22;3730;50.856;12.776;2022-07-23T05:44:59;18.90;99.90
7378;DHT22;3730;50.856;12.776;2022-07-23T05:47:25;18.90;99.90
7378;DHT22;3730;50.856;12.776;2022-07-23T05:49:50;19.00;99.90
7378;DHT22;3730;50.856;12.776;2022-07-23T05:52:16;19.00;99.90
7378;DHT22;3730;50.856;12.776;2022-07-23T05:54:42;19.00;99.90
7378;DHT22;3730;50.856;12.776;2022-07-23T05:57:07;19.00;99.90
7378;DHT22;3730;50.856;12.776;2022-07-23T05:59:33;19.10;99.90
7378;DHT22;3730;50.856;12.776;2022-07-23T06:01:59;19.10;99.90
7378;DHT22;3730;50.856;12.776;2022-07-23T06:04:25;19.10;99.90
7378;DHT22;3730;50.856;12.776;2022-07-23T06:06:51;19.10;99.90
7378;DHT22;3730;50.856;12.776;2022-07-23T06:09:16;19.10;99.90
7378;DHT22;3730;50.856;12.776;2022-07-23T06:11:42;19.10;99.90
7378;DHT22;3730;50.856;12.776;2022-07-23T06:14:08;19.10;99.90
7378;DHT22;3730;50.856;12.776;2022-07-23T06:16:33;19.10;99.90
7378;DHT22;3730;50.856;12.776;2022-07-23T06:18:59;19.20;99.90
7378;DHT22;3730;50.856;12.776;2022-07-23T06:21:25;19.20;99.90
7378;DHT22;3730;50.856;12.776;2022-07-23T06:23:50;19.20;99.90
7378;DHT22;3730;50.856;12.776;2022-07-23T06:26:16;19.20;99.90
7378;DHT22;3730;50.856;12.776;2022-07-23T06:28:41;19.20;99.90
7378;DHT22;3730;50.856;12.776;2022-07-23T06:31:07;19.30;99.90
7378;DHT22;3730;50.856;12.776;2022-07-23T06:33:33;19.30;99.90
7378;DHT22;3730;50.856;12.776;2022-07-23T06:35:59;19.30;99.90
7378;DHT22;3730;50.856;12.776;2022-07-23T06:38:24;19.40;99.90
7378;DHT22;3730;50.856;12.776;2022-07-23T06:40:50;19.40;99.90
7378;DHT22;3730;50.856;12.776;2022-07-23T06:43:16;19.50;99.90
7378;DHT22;3730;50.856;12.776;2022-07-23T06:45:42;19.50;99.90
7378;DHT22;3730;50.856;12.776;2022-07-23T06:48:07;19.50;99.90
7378;DHT22;3730;50.856;12.776;2022-07-23T06:50:33;19.60;99.90
7378;DHT22;3730;50.856;12.776;2022-07-23T06:52:59;19.70;99.90
7378;DHT22;3730;50.856;12.776;2022-07-23T06:55:25;19.70;99.90
7378;DHT22;3730;50.856;12.776;2022-07-23T06:57:51;19.80;99.90
7378;DHT22;3730;50.856;12.776;2022-07-23T07:07:36;19.80;99.90
7378;DHT22;3730;50.856;12.776;2022-07-23T07:10:05;20.00;99.90
7378;DHT22;3730;50.856;12.776;2022-07-23T07:12:31;20.00;99.90
7378;DHT22;3730;50.856;12.776;2022-07-23T07:14:57;20.00;99.90
7378;DHT22;3730;50.856;12.776;2022-07-23T07:17:22;20.10;99.90
7378;DHT22;3730;50.856;12.776;2022-07-23T07:19:48;20.10;99.90
7378;DHT22;3730;50.856;12.776;2022-07-23T07:22:14;20.10;99.90
7378;DHT22;3730;50.856;12.776;2022-07-23T08:23:08;20.10;99.90
7378;DHT22;3730;50.856;12.776;2022-07-23T08:25:39;21.40;99.90
7378;DHT22;3730;50.856;12.776;2022-07-23T08:28:06;21.50;99.70
7378;DHT22;3730;50.856;12.776;2022-07-23T08:30:33;21.50;99.00
7378;DHT22;3730;50.856;12.776;2022-07-23T08:33:05;21.50;98.70
7378;DHT22;3730;50.856;12.776;2022-07-23T08:35:35;21.60;98.90
7378;DHT22;3730;50.856;12.776;2022-07-23T08:38:03;21.60;98.70
7378;DHT22;3730;50.856;12.776;2022-07-23T08:40:30;21.60;98.70
7378;DHT22;3730;50.856;12.776;2022-07-23T08:42:57;21.70;98.70
7378;DHT22;3730;50.856;12.776;2022-07-23T08:45:24;21.70;98.40
7378;DHT22;3730;50.856;12.776;2022-07-23T08:47:56;21.80;98.30
7378;DHT22;3730;50.856;12.776;2022-07-23T08:55:18;21.90;98.00
7378;DHT22;3730;50.856;12.776;2022-07-23T08:57:47;22.00;96.00
7378;DHT22;3730;50.856;12.776;2022-07-23T09:00:13;22.00;95.90
7378;DHT22;3730;50.856;12.776;2022-07-23T09:10:06;22.10;95.80
7378;DHT22;3730;50.856;12.776;2022-07-23T09:22:36;22.10;95.80
7378;DHT22;3730;50.856;12.776;2022-07-23T09:35:52;22.40;94.40
7378;DHT22;3730;50.856;12.776;2022-07-23T09:38:20;22.50;93.80
7378;DHT22;3730;50.856;12.776;2022-07-23T09:43:26;22.60;93.90
7378;DHT22;3730;50.856;12.776;2022-07-23T09:45:53;22.70;92.70
7378;DHT22;3730;50.856;12.776;2022-07-23T09:48:18;22.80;92.80
7378;DHT22;3730;50.856;12.776;2022-07-23T09:50:45;22.90;92.20
7378;DHT22;3730;50.856;12.776;2022-07-23T09:53:24;23.00;92.40
7378;DHT22;3730;50.856;12.776;2022-07-23T09:55:52;22.90;91.80
7378;DHT22;3730;50.856;12.776;2022-07-23T09:58:20;22.90;91.80
7378;DHT22;3730;50.856;12.776;2022-07-23T10:00:47;22.90;91.90
7378;DHT22;3730;50.856;12.776;2022-07-23T10:03:15;23.00;91.90
7378;DHT22;3730;50.856;12.776;2022-07-23T10:05:42;23.00;91.90
7378;DHT22;3730;50.856;12.776;2022-07-23T10:08:11;23.10;91.60
7378;DHT22;3730;50.856;12.776;2022-07-23T10:10:39;23.10;91.10
7378;DHT22;3730;50.856;12.776;2022-07-23T10:13:05;23.10;90.90
7378;DHT22;3730;50.856;12.776;2022-07-23T10:15:50;23.10;91.00
7378;DHT22;3730;50.856;12.776;2022-07-23T10:18:16;23.10;90.80
7378;DHT22;3730;50.856;12.776;2022-07-23T10:20:42;23.00;90.80
7378;DHT22;3730;50.856;12.776;2022-07-23T10:28:28;23.00;91.10
7378;DHT22;3730;50.856;12.776;2022-07-23T10:37:21;22.90;93.40
7378;DHT22;3730;50.856;12.776;2022-07-23T10:42:37;22.30;97.10
7378;DHT22;3730;50.856;12.776;2022-07-23T10:45:32;22.00;99.70
7378;DHT22;3730;50.856;12.776;2022-07-23T10:48:17;21.80;99.90
7378;DHT22;3730;50.856;12.776;2022-07-23T10:51:05;21.80;99.90
7378;DHT22;3730;50.856;12.776;2022-07-23T10:53:54;21.90;99.90
7378;DHT22;3730;50.856;12.776;2022-07-23T10:59:22;22.00;99.90
7378;DHT22;3730;50.856;12.776;2022-07-23T11:01:48;22.00;99.90
7378;DHT22;3730;50.856;12.776;2022-07-23T11:04:15;21.90;99.90
7378;DHT22;3730;50.856;12.776;2022-07-23T11:09:39;22.00;99.90
7378;DHT22;3730;50.856;12.776;2022-07-23T11:15:08;22.00;99.90
7378;DHT22;3730;50.856;12.776;2022-07-23T11:17:58;21.90;99.90
7378;DHT22;3730;50.856;12.776;2022-07-23T11:20:23;21.80;99.90
7378;DHT22;3730;50.856;12.776;2022-07-23T11:22:52;21.80;99.90
7378;DHT22;3730;50.856;12.776;2022-07-23T11:27:50;21.90;99.90
7378;DHT22;3730;50.856;12.776;2022-07-23T11:32:51;21.90;99.90
7378;DHT22;3730;50.856;12.776;2022-07-23T11:35:26;22.00;99.90
7378;DHT22;3730;50.856;12.776;2022-07-23T11:37:56;22.00;99.90
7378;DHT22;3730;50.856;12.776;2022-07-23T11:40:27;22.10;99.90
7378;DHT22;3730;50.856;12.776;2022-07-23T11:43:00;22.10;99.90
7378;DHT22;3730;50.856;12.776;2022-07-23T11:45:36;22.20;99.90
7378;DHT22;3730;50.856;12.776;2022-07-23T11:48:03;22.20;99.90
7378;DHT22;3730;50.856;12.776;2022-07-23T11:50:29;22.30;99.90
7378;DHT22;3730;50.856;12.776;2022-07-23T11:52:55;22.40;99.90
7378;DHT22;3730;50.856;12.776;2022-07-23T11:55:21;22.50;99.90
7378;DHT22;3730;50.856;12.776;2022-07-23T11:57:47;22.50;99.90
7378;DHT22;3730;50.856;12.776;2022-07-23T12:00:19;22.60;99.90
7378;DHT22;3730;50.856;12.776;2022-07-23T12:02:50;22.70;99.90
7378;DHT22;3730;50.856;12.776;2022-07-23T12:05:19;22.90;99.90
7378;DHT22;3730;50.856;12.776;2022-07-23T12:22:46;23.00;99.90
7378;DHT22;3730;50.856;12.776;2022-07-23T12:25:15;24.00;96.80
7378;DHT22;3730;50.856;12.776;2022-07-23T12:27:43;24.00;95.70
7378;DHT22;3730;50.856;12.776;2022-07-23T12:30:27;24.00;94.80
7378;DHT22;3730;50.856;12.776;2022-07-23T12:32:56;24.00;94.20
7378;DHT22;3730;50.856;12.776;2022-07-23T12:35:29;24.00;93.30
7378;DHT22;3730;50.856;12.776;2022-07-23T12:38:03;24.00;92.70
7378;DHT22;3730;50.856;12.776;2022-07-23T12:40:49;24.00;92.90
7378;DHT22;3730;50.856;12.776;2022-07-23T12:43:27;24.00;92.80
7378;DHT22;3730;50.856;12.776;2022-07-23T12:46:09;24.00;92.70
7378;DHT22;3730;50.856;12.776;2022-07-23T12:48:40;23.90;92.30
7378;DHT22;3730;50.856;12.776;2022-07-23T12:51:16;23.90;92.20
7378;DHT22;3730;50.856;12.776;2022-07-23T12:53:44;23.90;92.20
7378;DHT22;3730;50.856;12.776;2022-07-23T12:56:22;23.80;92.00
7378;DHT22;3730;50.856;12.776;2022-07-23T13:04:00;23.80;91.80
7378;DHT22;3730;50.856;12.776;2022-07-23T13:06:34;23.80;92.00
7378;DHT22;3730;50.856;12.776;2022-07-23T13:09:00;23.80;92.00
7378;DHT22;3730;50.856;12.776;2022-07-23T13:11:26;23.80;91.70
7378;DHT22;3730;50.856;12.776;2022-07-23T13:13:52;23.80;91.80
7378;DHT22;3730;50.856;12.776;2022-07-23T13:16:18;23.90;91.60
7378;DHT22;3730;50.856;12.776;2022-07-23T13:18:44;23.80;91.50
7378;DHT22;3730;50.856;12.776;2022-07-23T13:21:10;23.90;91.50
7378;DHT22;3730;50.856;12.776;2022-07-23T13:23:36;23.90;91.40
7378;DHT22;3730;50.856;12.776;2022-07-23T13:26:02;24.00;91.40
7378;DHT22;3730;50.856;12.776;2022-07-23T13:28:28;24.00;91.10
7378;DHT22;3730;50.856;12.776;2022-07-23T13:30:53;24.00;90.80
7378;DHT22;3730;50.856;12.776;2022-07-23T13:33:21;23.90;90.60
7378;DHT22;3730;50.856;12.776;2022-07-23T13:35:48;23.80;90.70
7378;DHT22;3730;50.856;12.776;2022-07-23T13:38:13;23.80;90.60
7378;DHT22;3730;50.856;12.776;2022-07-23T13:40:41;23.80;90.70
7378;DHT22;3730;50.856;12.776;2022-07-23T13:43:12;23.80;90.60
7378;DHT22;3730;50.856;12.776;2022-07-23T13:45:39;23.90;90.60
7378;DHT22;3730;50.856;12.776;2022-07-23T13:48:06;23.90;90.40
7378;DHT22;3730;50.856;12.776;2022-07-23T13:50:33;23.90;90.50
7378;DHT22;3730;50.856;12.776;2022-07-23T13:53:02;23.90;90.30
7378;DHT22;3730;50.856;12.776;2022-07-23T13:55:28;23.80;90.20
7378;DHT22;3730;50.856;12.776;2022-07-23T13:57:54;23.80;90.30
7378;DHT22;3730;50.856;12.776;2022-07-23T14:00:19;23.90;90.10
7378;DHT22;3730;50.856;12.776;2022-07-23T14:02:45;23.90;90.20
7378;DHT22;3730;50.856;12.776;2022-07-23T14:05:11;23.90;90.20
7378;DHT22;3730;50.856;12.776;2022-07-23T14:07:37;23.80;90.00
7378;DHT22;3730;50.856;12.776;2022-07-23T14:10:05;23.80;90.30
7378;DHT22;3730;50.856;12.776;2022-07-23T14:12:31;24.00;90.30
7378;DHT22;3730;50.856;12.776;2022-07-23T14:19:50;24.20;90.30
7378;DHT22;3730;50.856;12.776;2022-07-23T14:22:16;24.70;86.40
7378;DHT22;3730;50.856;12.776;2022-07-23T14:24:42;24.90;85.90
7378;DHT22;3730;50.856;12.776;2022-07-23T15:03:42;25.00;84.90
7378;DHT22;3730;50.856;12.776;2022-07-23T15:06:07;26.20;72.90
7378;DHT22;3730;50.856;12.776;2022-07-23T15:08:33;26.20;73.90
7378;DHT22;3730;50.856;12.776;2022-07-23T15:10:59;26.30;73.10
7378;DHT22;3730;50.856;12.776;2022-07-23T15:13:25;26.50;71.30
7378;DHT22;3730;50.856;12.776;2022-07-23T15:15:50;26.60;70.80
7378;DHT22;3730;50.856;12.776;2022-07-23T15:18:16;26.70;69.70
7378;DHT22;3730;50.856;12.776;2022-07-23T15:20:42;26.70;68.90
7378;DHT22;3730;50.856;12.776;2022-07-23T15:30:27;26.80;67.90
7378;DHT22;3730;50.856;12.776;2022-07-23T15:32:53;27.40;63.90
7378;DHT22;3730;50.856;12.776;2022-07-23T15:35:19;27.30;61.10
7378;DHT22;3730;50.856;12.776;2022-07-23T15:37:45;27.10;60.60
7378;DHT22;3730;50.856;12.776;2022-07-23T15:40:12;26.50;61.30
7378;DHT22;3730;50.856;12.776;2022-07-23T15:42:38;26.60;62.20
7378;DHT22;3730;50.856;12.776;2022-07-23T15:45:04;26.50;61.30
7378;DHT22;3730;50.856;12.776;2022-07-23T15:47:31;26.70;60.80
7378;DHT22;3730;50.856;12.776;2022-07-23T15:49:56;26.90;60.00
7378;DHT22;3730;50.856;12.776;2022-07-23T15:52:22;27.00;59.20
7378;DHT22;3730;50.856;12.776;2022-07-23T15:54:48;27.20;58.30
7378;DHT22;3730;50.856;12.776;2022-07-23T15:57:14;27.10;57.30
7378;DHT22;3730;50.856;12.776;2022-07-23T15:59:40;27.10;56.80
7378;DHT22;3730;50.856;12.776;2022-07-23T16:02:06;26.80;54.20
7378;DHT22;3730;50.856;12.776;2022-07-23T16:09:24;26.30;53.60
7378;DHT22;3730;50.856;12.776;2022-07-23T16:21:35;26.30;54.40
7378;DHT22;3730;50.856;12.776;2022-07-23T16:24:01;25.70;56.50
7378;DHT22;3730;50.856;12.776;2022-07-23T16:26:27;25.80;56.50
7378;DHT22;3730;50.856;12.776;2022-07-23T16:28:53;25.70;55.70
7378;DHT22;3730;50.856;12.776;2022-07-23T16:31:19;25.80;55.40
7378;DHT22;3730;50.856;12.776;2022-07-23T16:33:45;25.80;54.60
7378;DHT22;3730;50.856;12.776;2022-07-23T16:36:12;25.70;54.00
7378;DHT22;3730;50.856;12.776;2022-07-23T16:38:38;25.40;55.50
7378;DHT22;3730;50.856;12.776;2022-07-23T16:41:06;25.40;55.00
7378;DHT22;3730;50.856;12.776;2022-07-23T16:45:59;25.40;54.80
7378;DHT22;3730;50.856;12.776;2022-07-23T16:48:25;25.10;55.60
7378;DHT22;3730;50.856;12.776;2022-07-23T16:50:50;25.10;55.70
7378;DHT22;3730;50.856;12.776;2022-07-23T16:55:43;25.10;55.20
7378;DHT22;3730;50.856;12.776;2022-07-23T16:58:08;24.90;54.50
7378;DHT22;3730;50.856;12.776;2022-07-23T17:00:34;24.90;55.70
7378;DHT22;3730;50.856;12.776;2022-07-23T17:03:00;24.90;55.90
7378;DHT22;3730;50.856;12.776;2022-07-23T17:05:26;24.90;55.80
7378;DHT22;3730;50.856;12.776;2022-07-23T17:07:51;24.90;55.70
7378;DHT22;3730;50.856;12.776;2022-07-23T17:10:19;25.00;55.60
7378;DHT22;3730;50.856;12.776;2022-07-23T17:12:45;25.00;55.30
7378;DHT22;3730;50.856;12.776;2022-07-23T17:15:11;25.00;54.70
7378;DHT22;3730;50.856;12.776;2022-07-23T17:17:37;24.90;55.00
7378;DHT22;3730;50.856;12.776;2022-07-23T17:20:07;25.00;55.40
7378;DHT22;3730;50.856;12.776;2022-07-23T17:22:33;24.90;55.50
7378;DHT22;3730;50.856;12.776;2022-07-23T17:25:00;24.90;56.00
7378;DHT22;3730;50.856;12.776;2022-07-23T17:27:25;24.90;56.30
7378;DHT22;3730;50.856;12.776;2022-07-23T17:29:52;24.90;56.50
7378;DHT22;3730;50.856;12.776;2022-07-23T17:32:18;24.90;56.40
7378;DHT22;3730;50.856;12.776;2022-07-23T17:34:45;24.90;56.40
7378;DHT22;3730;50.856;12.776;2022-07-23T17:37:11;24.90;56.30
7378;DHT22;3730;50.856;12.776;2022-07-23T17:39:37;24.90;56.30
7378;DHT22;3730;50.856;12.776;2022-07-23T17:42:03;24.90;56.40
7378;DHT22;3730;50.856;12.776;2022-07-23T17:44:29;24.90;56.10
7378;DHT22;3730;50.856;12.776;2022-07-23T17:46:55;24.90;56.50
7378;DHT22;3730;50.856;12.776;2022-07-23T17:49:20;24.80;55.60
7378;DHT22;3730;50.856;12.776;2022-07-23T17:51:46;24.80;55.40
7378;DHT22;3730;50.856;12.776;2022-07-23T17:59:05;24.80;55.20
7378;DHT22;3730;50.856;12.776;2022-07-23T18:01:31;24.80;55.10
7378;DHT22;3730;50.856;12.776;2022-07-23T18:18:34;24.70;54.80
7378;DHT22;3730;50.856;12.776;2022-07-23T18:21:01;24.50;55.80
7378;DHT22;3730;50.856;12.776;2022-07-23T18:23:27;24.50;55.30
7378;DHT22;3730;50.856;12.776;2022-07-23T18:25:53;24.50;56.00
7378;DHT22;3730;50.856;12.776;2022-07-23T18:28:20;24.40;56.10
7378;DHT22;3730;50.856;12.776;2022-07-23T18:30:46;24.40;56.20
7378;DHT22;3730;50.856;12.776;2022-07-23T18:33:13;24.40;56.60
7378;DHT22;3730;50.856;12.776;2022-07-23T18:35:39;24.30;56.70
7378;DHT22;3730;50.856;12.776;2022-07-23T18:38:04;24.30;57.20
7378;DHT22;3730;50.856;12.776;2022-07-23T18:40:30;24.30;57.30
7378;DHT22;3730;50.856;12.776;2022-07-23T18:42:56;24.20;57.50
7378;DHT22;3730;50.856;12.776;2022-07-23T18:45:24;24.20;57.90
7378;DHT22;3730;50.856;12.776;2022-07-23T18:47:52;24.10;58.10
7378;DHT22;3730;50.856;12.776;2022-07-23T19:41:29;24.10;58.30
7378;DHT22;3730;50.856;12.776;2022-07-23T19:43:55;22.90;66.70
7378;DHT22;3730;50.856;12.776;2022-07-23T19:46:21;22.80;67.50
7378;DHT22;3730;50.856;12.776;2022-07-23T19:48:46;22.70;67.90
7378;DHT22;3730;50.856;12.776;2022-07-23T19:51:12;22.70;68.90
7378;DHT22;3730;50.856;12.776;2022-07-23T19:53:38;22.60;69.60
7378;DHT22;3730;50.856;12.776;2022-07-23T20:05:48;22.60;70.40
7378;DHT22;3730;50.856;12.776;2022-07-23T20:08:14;22.40;73.00
7378;DHT22;3730;50.856;12.776;2022-07-23T20:20:26;22.30;74.40
7378;DHT22;3730;50.856;12.776;2022-07-23T20:22:53;22.10;77.50
7378;DHT22;3730;50.856;12.776;2022-07-23T20:25:19;22.10;78.20
7378;DHT22;3730;50.856;12.776;2022-07-23T20:37:30;22.00;79.20
7378;DHT22;3730;50.856;12.776;2022-07-23T20:39:55;21.60;84.70
7378;DHT22;3730;50.856;12.776;2022-07-23T21:04:21;21.50;85.90
7378;DHT22;3730;50.856;12.776;2022-07-23T21:06:47;20.90;91.90
7378;DHT22;3730;50.856;12.776;2022-07-23T21:09:12;20.80;92.40
7378;DHT22;3730;50.856;12.776;2022-07-23T21:11:38;20.80;92.70
7378;DHT22;3730;50.856;12.776;2022-07-23T21:14:04;20.80;92.80
7378;DHT22;3730;50.856;12.776;2022-07-23T21:16:30;20.80;93.00
7378;DHT22;3730;50.856;12.776;2022-07-23T21:18:55;20.80;93.20
7378;DHT22;3730;50.856;12.776;2022-07-23T21:21:21;20.80;93.40
7378;DHT22;3730;50.856;12.776;2022-07-23T21:23:48;20.80;93.40
7378;DHT22;3730;50.856;12.776;2022-07-23T21:26:16;20.80;93.20
7378;DHT22;3730;50.856;12.776;2022-07-23T21:28:42;20.80;92.70
7378;DHT22;3730;50.856;12.776;2022-07-23T21:31:08;20.90;92.10
7378;DHT22;3730;50.856;12.776;2022-07-23T21:33:34;20.90;91.60
7378;DHT22;3730;50.856;12.776;2022-07-23T21:36:00;21.00;90.90
7378;DHT22;3730;50.856;12.776;2022-07-23T21:38:26;21.00;90.30
7378;DHT22;3730;50.856;12.776;2022-07-23T21:40:53;21.00;90.00
7378;DHT22;3730;50.856;12.776;2022-07-23T21:43:19;21.00;89.10
7378;DHT22;3730;50.856;12.776;2022-07-23T21:45:47;20.90;88.40
7378;DHT22;3730;50.856;12.776;2022-07-23T21:48:13;21.00;88.20
7378;DHT22;3730;50.856;12.776;2022-07-23T21:50:39;21.00;87.90
7378;DHT22;3730;50.856;12.776;2022-07-23T21:53:04;20.90;88.00
7378;DHT22;3730;50.856;12.776;2022-07-23T21:55:31;20.90;87.90
7378;DHT22;3730;50.856;12.776;2022-07-23T21:57:57;20.90;88.00
7378;DHT22;3730;50.856;12.776;2022-07-23T22:00:25;20.80;88.10
7378;DHT22;3730;50.856;12.776;2022-07-23T22:02:54;20.90;89.40
7378;DHT22;3730;50.856;12.776;2022-07-23T22:05:20;20.80;90.10
7378;DHT22;3730;50.856;12.776;2022-07-23T22:07:47;20.80;90.30
7378;DHT22;3730;50.856;12.776;2022-07-23T22:10:13;20.70;90.40
7378;DHT22;3730;50.856;12.776;2022-07-23T22:12:39;20.70;90.20
7378;DHT22;3730;50.856;12.776;2022-07-23T22:15:07;20.70;90.00
7378;DHT22;3730;50.856;12.776;2022-07-23T22:17:34;20.70;89.10
7378;DHT22;3730;50.856;12.776;2022-07-23T22:19:59;20.60;87.70
7378;DHT22;3730;50.856;12.776;2022-07-23T22:22:25;20.60;86.40
7378;DHT22;3730;50.856;12.776;2022-07-23T22:24:51;20.60;85.30
7378;DHT22;3730;50.856;12.776;2022-07-23T22:27:17;20.60;84.20
7378;DHT22;3730;50.856;12.776;2022-07-23T22:29:44;20.60;83.30
7378;DHT22;3730;50.856;12.776;2022-07-23T22:32:10;20.50;81.40
7378;DHT22;3730;50.856;12.776;2022-07-23T22:34:36;20.50;80.00
7378;DHT22;3730;50.856;12.776;2022-07-23T22:37:02;20.50;79.00
7378;DHT22;3730;50.856;12.776;2022-07-23T22:39:27;20.50;78.20
7378;DHT22;3730;50.856;12.776;2022-07-23T22:41:53;20.50;77.10
7378;DHT22;3730;50.856;12.776;2022-07-23T22:44:19;20.50;76.20
7378;DHT22;3730;50.856;12.776;2022-07-23T22:46:44;20.50;75.30
7378;DHT22;3730;50.856;12.776;2022-07-23T22:49:10;20.50;74.80
7378;DHT22;3730;50.856;12.776;2022-07-23T22:51:36;20.50;74.00
7378;DHT22;3730;50.856;12.776;2022-07-23T22:54:02;20.40;73.70
7378;DHT22;3730;50.856;12.776;2022-07-23T22:56:31;20.40;74.30
